Terminal Aerodrome Forecast
Issued by NWS

Home | Current Version | Previous Version | Text Only | Print | Product List | Glossary On
Versions: 1 2 3 4 5 6 7 8 9 10 11 12 13 14 15 16 17 18 19 20
000
FTUS44 KSJT 241700
TAFSOA
TAF
KSOA 241727Z 2418/2518 20008KT P6SM SKC
     FM250100 00000KT P6SM SKC
      TEMPO 2511/2515 3SM BR=

USA.gov is the U.S. government's official web portal to all federal, state and local government web resources and services.